Time,TemperatureF,DewpointF,PressureIn,WindDirection,WindDirectionDegrees,WindSpeedMPH,WindSpeedGustMPH,Humidity,HourlyPrecipIn,Conditions,Clouds,dailyrainin,SoftwareType,DateUTC
2013-08-23 00:00:00,69.8,67.7,30.05,NW,316,5.0,8.0,93,0.00,,---,0.00,VWS V14.01,2013-08-23 04:00:00,
2013-08-23 00:30:00,69.7,67.6,30.05,NW,306,5.0,8.0,93,0.00,,---,0.00,VWS V14.01,2013-08-23 04:30:00,
2013-08-23 01:00:00,69.8,67.7,30.05,NW,316,5.0,8.0,93,0.00,,---,0.00,VWS V14.01,2013-08-23 05:00:00,
2013-08-23 01:30:00,68.4,66.3,30.07,NNW,341,4.0,8.0,93,0.00,,---,0.00,VWS V14.01,2013-08-23 05:30:00,
2013-08-23 02:00:00,67.5,65.7,30.06,ENE,75,1.0,8.0,94,0.00,,---,0.00,VWS V14.01,2013-08-23 06:00:00,
2013-08-23 02:30:00,66.6,65.1,30.06,East,84,0.0,2.0,95,0.00,,---,0.00,VWS V14.01,2013-08-23 06:30:00,
2013-08-23 03:00:00,66.2,65.0,30.05,NE,44,0.0,2.0,96,0.00,,---,0.00,VWS V14.01,2013-08-23 07:00:00,
2013-08-23 03:30:00,66.0,65.1,30.04,NNW,343,0.0,3.0,97,0.00,,---,0.00,VWS V14.01,2013-08-23 07:30:00,
2013-08-23 04:00:00,65.9,65.0,30.04,NNE,29,0.0,2.0,97,0.00,,---,0.00,VWS V14.01,2013-08-23 08:00:00,
2013-08-23 04:30:00,65.8,64.9,30.05,NE,41,0.0,2.0,97,0.00,,---,0.00,VWS V14.01,2013-08-23 08:30:00,
2013-08-23 05:00:00,65.5,64.6,30.04,ENE,70,0.0,0.0,97,0.00,,---,0.00,VWS V14.01,2013-08-23 09:00:00,
2013-08-23 05:30:00,65.6,65.0,30.05,ENE,78,1.0,2.0,98,0.00,,---,0.00,VWS V14.01,2013-08-23 09:30:00,
2013-08-23 06:00:00,66.0,65.4,30.05,NNE,28,1.0,5.0,98,0.00,,---,0.00,VWS V14.01,2013-08-23 10:00:00,
2013-08-23 06:30:00,65.6,64.7,30.06,ENE,67,0.0,2.0,97,0.00,,---,0.00,VWS V14.01,2013-08-23 10:30:00,
2013-08-23 07:00:00,65.6,65.0,30.07,ENE,66,0.0,0.0,98,0.00,,---,0.00,VWS V14.01,2013-08-23 11:00:00,
2013-08-23 07:30:00,65.8,64.9,30.08,ENE,70,0.0,0.0,97,0.00,,---,0.00,VWS V14.01,2013-08-23 11:30:00,
2013-08-23 08:00:00,66.2,65.0,30.09,ENE,70,1.0,4.0,96,0.00,,---,0.00,VWS V14.01,2013-08-23 12:00:00,
2013-08-23 08:30:00,66.5,64.7,30.09,ENE,70,2.0,5.0,94,0.00,,---,0.00,VWS V14.01,2013-08-23 12:30:00,
2013-08-23 09:00:00,67.2,65.1,30.10,East,90,2.0,5.0,93,0.00,,---,0.00,VWS V14.01,2013-08-23 13:00:00,
2013-08-23 09:30:00,67.9,65.5,30.10,ENE,68,1.0,4.0,92,0.00,,---,0.00,VWS V14.01,2013-08-23 13:30:00,
2013-08-23 10:00:00,69.2,66.2,30.11,ESE,105,0.0,3.0,90,0.00,,---,0.00,VWS V14.01,2013-08-23 14:00:00,
2013-08-23 10:30:00,70.9,67.2,30.11,ENE,71,0.0,3.0,88,0.00,,---,0.00,VWS V14.01,2013-08-23 14:30:00,
2013-08-23 11:00:00,72.0,67.9,30.11,East,84,1.0,4.0,87,0.00,,---,0.00,VWS V14.01,2013-08-23 15:00:00,
2013-08-23 11:30:00,73.3,68.5,30.11,ENE,70,0.0,4.0,85,0.00,,---,0.00,VWS V14.01,2013-08-23 15:30:00,
2013-08-23 12:00:00,74.2,68.4,30.11,ENE,62,2.0,5.0,82,0.00,,---,0.00,VWS V14.01,2013-08-23 16:00:00,
2013-08-23 12:30:00,75.3,68.3,30.11,NE,43,3.0,5.0,79,0.00,,---,0.00,VWS V14.01,2013-08-23 16:30:00,
2013-08-23 13:00:00,76.4,67.5,30.11,ESE,111,2.0,6.0,74,0.00,,---,0.00,VWS V14.01,2013-08-23 17:00:00,
2013-08-23 13:30:00,77.5,67.4,30.11,NE,46,3.0,6.0,71,0.00,,---,0.00,VWS V14.01,2013-08-23 17:30:00,
2013-08-23 14:00:00,79.1,67.2,30.11,NNE,32,2.0,6.0,67,0.00,,---,0.00,VWS V14.01,2013-08-23 18:00:00,
2013-08-23 14:30:00,78.5,64.0,30.10,ESE,108,2.0,7.0,61,0.00,,---,0.00,VWS V14.01,2013-08-23 18:30:00,
2013-08-23 15:00:00,81.7,64.5,30.10,East,84,2.0,4.0,56,0.00,,---,0.00,VWS V14.01,2013-08-23 19:00:00,
2013-08-23 15:30:00,81.5,65.3,30.10,SW,218,2.0,5.0,58,0.00,,---,0.00,VWS V14.01,2013-08-23 19:30:00,
2013-08-23 16:00:00,82.1,63.3,30.09,NW,314,1.0,6.0,53,0.00,,---,0.00,VWS V14.01,2013-08-23 20:00:00,
2013-08-23 16:30:00,81.6,60.0,30.08,North,5,1.0,5.0,48,0.00,,---,0.00,VWS V14.01,2013-08-23 20:30:00,
2013-08-23 17:00:00,81.7,61.3,30.08,NE,46,1.0,4.0,50,0.00,,---,0.00,VWS V14.01,2013-08-23 21:00:00,
2013-08-23 17:30:00,81.9,61.5,30.08,East,79,2.0,5.0,50,0.00,,---,0.00,VWS V14.01,2013-08-23 21:30:00,
2013-08-23 18:00:00,82.4,59.6,30.08,East,96,2.0,6.0,46,0.00,,---,0.00,VWS V14.01,2013-08-23 22:00:00,
2013-08-23 18:30:00,81.3,59.8,30.08,East,98,2.0,6.0,48,0.00,,---,0.00,VWS V14.01,2013-08-23 22:30:00,
2013-08-23 19:00:00,81.4,60.4,30.08,NE,53,2.0,4.0,49,0.00,,---,0.00,VWS V14.01,2013-08-23 23:00:00,
2013-08-23 19:30:00,80.6,59.1,30.08,North,11,1.0,5.0,48,0.00,,---,0.00,VWS V14.01,2013-08-23 23:30:00,
2013-08-23 20:00:00,79.6,59.3,30.09,ENE,70,3.0,3.0,50,0.00,,---,0.00,VWS V14.01,2013-08-24 00:00:00,
2013-08-23 20:30:00,73.8,60.4,30.09,East,101,0.0,3.0,63,0.00,,---,0.00,VWS V14.01,2013-08-24 00:30:00,
2013-08-23 21:00:00,69.1,60.1,30.10,ESE,109,1.0,1.0,73,0.00,,---,0.00,VWS V14.01,2013-08-24 01:00:00,
2013-08-23 21:30:00,66.6,59.9,30.12,ESE,110,0.0,1.0,79,0.00,,---,0.00,VWS V14.01,2013-08-24 01:30:00,
2013-08-23 22:00:00,65.4,60.1,30.13,ESE,111,0.0,1.0,83,0.00,,---,0.00,VWS V14.01,2013-08-24 02:00:00,
2013-08-23 22:30:00,64.3,59.7,30.14,ESE,110,0.0,1.0,85,0.00,,---,0.00,VWS V14.01,2013-08-24 02:30:00,
2013-08-23 23:00:00,63.5,59.2,30.14,ESE,111,0.0,1.0,86,0.00,,---,0.00,VWS V14.01,2013-08-24 03:00:00,
2013-08-23 23:30:00,63.2,59.0,30.14,ESE,112,0.0,0.0,86,0.00,,---,0.00,VWS V14.01,2013-08-24 03:30:00,